FDX624 ENGM-EPWA
Flight info
| Callsign | FDX624 |
|---|---|
| Flight time | 2h 19m |
| Altitude | 31000 |
| Route | OKSAT L996 GETPA/N0482F350 L727 NEGIL DCT LARMA DCT LASGU DCT SORIX |
| Aircraft | MD11/H-SDE1E2E3FGHIJ2J3J4J5M1RWXY/LB1D1 |
Departure
| Time | 2026-05-04 15:23 |
|---|---|
| Airport | Oslo-Gardermoen International Airport (ENGM) |
Arrival
| Time | 2026-05-04 17:43 |
|---|---|
| Airport | Warsaw Chopin Airport (EPWA) |
| Time | Latitude | Longitude | Altitude | Speed | Heading |
|---|---|---|---|---|---|
| 2026-05-04 14:33 | 60.19336 | 11.08605 | 695 ft | 0 kts | 103° |
| 2026-05-04 14:57 | 60.19341 | 11.08570 | 691 ft | 4 kts | 106° |
| 2026-05-04 14:57 | 60.19355 | 11.08474 | 681 ft | 4 kts | 92° |
| 2026-05-04 14:58 | 60.19334 | 11.08415 | 681 ft | 4 kts | 14° |
| 2026-05-04 14:58 | 60.19321 | 11.08408 | 680 ft | 1 kts | 16° |
| 2026-05-04 15:14 | 60.19323 | 11.08409 | 688 ft | 1 kts | 16° |
| 2026-05-04 15:14 | 60.19418 | 11.08464 | 688 ft | 10 kts | 16° |
| 2026-05-04 15:15 | 60.19731 | 11.08641 | 684 ft | 76 kts | 15° |
| 2026-05-04 15:15 | 60.20173 | 11.08900 | 686 ft | 0 kts | 18° |
| 2026-05-04 15:15 | 60.20181 | 11.08905 | 686 ft | 2 kts | 17° |
| 2026-05-04 15:16 | 60.20483 | 11.09079 | 685 ft | 4 kts | 16° |
| 2026-05-04 15:16 | 60.20504 | 11.09091 | 687 ft | 0 kts | 16° |
| 2026-05-04 15:17 | 60.20594 | 11.09143 | 684 ft | 8 kts | 16° |
| 2026-05-04 15:17 | 60.21098 | 11.09434 | 689 ft | 32 kts | 16° |
| 2026-05-04 15:17 | 60.21310 | 11.09554 | 685 ft | 31 kts | 15° |
| 2026-05-04 15:18 | 60.21493 | 11.09630 | 686 ft | 16 kts | 341° |
| 2026-05-04 15:18 | 60.21549 | 11.09484 | 684 ft | 4 kts | 293° |
| 2026-05-04 15:18 | 60.21552 | 11.09461 | 683 ft | 1 kts | 286° |
| 2026-05-04 15:19 | 60.21554 | 11.09449 | 684 ft | 0 kts | 286° |
| 2026-05-04 15:21 | 60.21560 | 11.09407 | 687 ft | 8 kts | 286° |
| 2026-05-04 15:22 | 60.21585 | 11.09237 | 685 ft | 17 kts | 285° |
| 2026-05-04 15:22 | 60.21586 | 11.09192 | 690 ft | 0 kts | 258° |
| 2026-05-04 15:22 | 60.21556 | 11.09139 | 689 ft | 8 kts | 207° |
| 2026-05-04 15:23 | 60.21463 | 11.09080 | 685 ft | 23 kts | 197° |
| 2026-05-04 15:23 | 60.20988 | 11.08807 | 684 ft | 117 kts | 195° |
| 2026-05-04 15:23 | 60.19965 | 11.08215 | 731 ft | 180 kts | 199° |
| 2026-05-04 15:23 | 60.18739 | 11.07486 | 1448 ft | 182 kts | 202° |
| 2026-05-04 15:24 | 60.16756 | 11.04950 | 3504 ft | 164 kts | 245° |
| 2026-05-04 15:24 | 60.15545 | 11.00297 | 4282 ft | 219 kts | 245° |
| 2026-05-04 15:25 | 60.14851 | 10.97465 | 4425 ft | 232 kts | 248° |
| 2026-05-04 15:25 | 60.14501 | 10.94270 | 4642 ft | 238 kts | 271° |
| 2026-05-04 15:25 | 60.14656 | 10.90936 | 5002 ft | 241 kts | 277° |
| 2026-05-04 15:26 | 60.15394 | 10.84358 | 6079 ft | 243 kts | 292° |
| 2026-05-04 15:26 | 60.16378 | 10.81567 | 7032 ft | 251 kts | 312° |
| 2026-05-04 15:26 | 60.19739 | 10.78955 | 8873 ft | 274 kts | 346° |
| 2026-05-04 15:27 | 60.21627 | 10.78546 | 9800 ft | 278 kts | 348° |
| 2026-05-04 15:27 | 60.25935 | 10.78981 | 10214 ft | 350 kts | 12° |
| 2026-05-04 15:28 | 60.28588 | 10.82003 | 10981 ft | 375 kts | 38° |
| 2026-05-04 15:28 | 60.30198 | 10.86222 | 11853 ft | 389 kts | 61° |
| 2026-05-04 15:28 | 60.30963 | 10.97134 | 13465 ft | 406 kts | 94° |
| 2026-05-04 15:29 | 60.30681 | 11.02862 | 14118 ft | 414 kts | 97° |
| 2026-05-04 15:30 | 60.26201 | 11.23924 | 16629 ft | 417 kts | 154° |
| 2026-05-04 15:30 | 60.18214 | 11.29269 | 18662 ft | 406 kts | 179° |
| 2026-05-04 15:31 | 60.12647 | 11.31920 | 19879 ft | 421 kts | 174° |
| 2026-05-04 15:31 | 60.09861 | 11.34097 | 20492 ft | 439 kts | 165° |
| 2026-05-04 15:32 | 60.01738 | 11.43682 | 22329 ft | 461 kts | 158° |
| 2026-05-04 15:32 | 59.96204 | 11.50303 | 23424 ft | 463 kts | 163° |
| 2026-05-04 15:33 | 59.90386 | 11.55724 | 24293 ft | 466 kts | 166° |
| 2026-05-04 15:34 | 59.81341 | 11.63452 | 25785 ft | 477 kts | 166° |
| 2026-05-04 15:34 | 59.78278 | 11.66089 | 26254 ft | 482 kts | 166° |
| 2026-05-04 15:34 | 59.74238 | 11.69587 | 26876 ft | 487 kts | 166° |
| 2026-05-04 15:35 | 59.71121 | 11.72292 | 27335 ft | 491 kts | 165° |
| 2026-05-04 15:35 | 59.69574 | 11.73775 | 27498 ft | 499 kts | 160° |
| 2026-05-04 15:35 | 59.68072 | 11.75559 | 27753 ft | 506 kts | 154° |
| 2026-05-04 15:36 | 59.65195 | 11.79706 | 28181 ft | 517 kts | 149° |
| 2026-05-04 15:36 | 59.63787 | 11.81936 | 28314 ft | 519 kts | 148° |
| 2026-05-04 15:36 | 59.62394 | 11.84191 | 28651 ft | 518 kts | 147° |
| 2026-05-04 15:37 | 59.61002 | 11.86449 | 28945 ft | 518 kts | 147° |
| 2026-05-04 15:37 | 59.59604 | 11.88693 | 29185 ft | 519 kts | 147° |
| 2026-05-04 15:37 | 59.58193 | 11.90916 | 29410 ft | 520 kts | 148° |
| 2026-05-04 15:37 | 59.56768 | 11.93116 | 29653 ft | 521 kts | 149° |
| 2026-05-04 15:38 | 59.55329 | 11.95294 | 29839 ft | 522 kts | 149° |
| 2026-05-04 15:38 | 59.53876 | 11.97454 | 30034 ft | 523 kts | 150° |
| 2026-05-04 15:38 | 59.52417 | 11.99589 | 30236 ft | 523 kts | 150° |
| 2026-05-04 15:38 | 59.50949 | 12.01715 | 30433 ft | 524 kts | 150° |
| 2026-05-04 15:39 | 59.49476 | 12.03829 | 30632 ft | 524 kts | 150° |
| 2026-05-04 15:39 | 59.48004 | 12.05930 | 30877 ft | 523 kts | 150° |
| 2026-05-04 15:39 | 59.45057 | 12.10116 | 31359 ft | 521 kts | 151° |
| 2026-05-04 15:40 | 59.43612 | 12.12164 | 31604 ft | 520 kts | 151° |
| 2026-05-04 15:40 | 59.42147 | 12.14240 | 31843 ft | 519 kts | 151° |
| 2026-05-04 15:40 | 59.40686 | 12.16308 | 32102 ft | 518 kts | 151° |
| 2026-05-04 15:40 | 59.39224 | 12.18376 | 32345 ft | 517 kts | 151° |
| 2026-05-04 15:41 | 59.37766 | 12.20438 | 32593 ft | 516 kts | 151° |
| 2026-05-04 15:41 | 59.36312 | 12.22495 | 32841 ft | 515 kts | 151° |
| 2026-05-04 15:41 | 59.34860 | 12.24546 | 33069 ft | 513 kts | 151° |
| 2026-05-04 15:41 | 59.33416 | 12.26585 | 33296 ft | 513 kts | 151° |
| 2026-05-04 15:42 | 59.31970 | 12.28626 | 33498 ft | 512 kts | 151° |
| 2026-05-04 15:42 | 59.30526 | 12.30661 | 33696 ft | 511 kts | 151° |
| 2026-05-04 15:42 | 59.29083 | 12.32691 | 33819 ft | 510 kts | 150° |
| 2026-05-04 15:42 | 59.27644 | 12.34715 | 33983 ft | 509 kts | 150° |
| 2026-05-04 15:43 | 59.26208 | 12.36733 | 34179 ft | 508 kts | 150° |
| 2026-05-04 15:43 | 59.24774 | 12.38747 | 34347 ft | 507 kts | 150° |
| 2026-05-04 15:43 | 59.23345 | 12.40752 | 34538 ft | 506 kts | 150° |
| 2026-05-04 15:44 | 59.20496 | 12.44741 | 34678 ft | 508 kts | 150° |
| 2026-05-04 15:44 | 59.17621 | 12.48754 | 34707 ft | 507 kts | 151° |
| 2026-05-04 15:45 | 59.14758 | 12.52748 | 34719 ft | 506 kts | 150° |
| 2026-05-04 15:45 | 59.11898 | 12.56729 | 34725 ft | 505 kts | 151° |
| 2026-05-04 15:46 | 59.09044 | 12.60691 | 34736 ft | 505 kts | 151° |
| 2026-05-04 15:46 | 59.06184 | 12.64653 | 34731 ft | 505 kts | 151° |
| 2026-05-04 15:47 | 59.03318 | 12.68589 | 34733 ft | 505 kts | 151° |
| 2026-05-04 15:47 | 59.00443 | 12.72505 | 34734 ft | 504 kts | 151° |
| 2026-05-04 15:48 | 58.97571 | 12.76413 | 34736 ft | 505 kts | 151° |
| 2026-05-04 15:48 | 58.93264 | 12.82290 | 34742 ft | 506 kts | 151° |
| 2026-05-04 15:49 | 58.90384 | 12.86224 | 34744 ft | 507 kts | 150° |
| 2026-05-04 15:49 | 58.87501 | 12.90163 | 34744 ft | 507 kts | 150° |
| 2026-05-04 15:50 | 58.84636 | 12.94074 | 34742 ft | 507 kts | 150° |
| 2026-05-04 15:50 | 58.81756 | 12.97999 | 34757 ft | 507 kts | 151° |
| 2026-05-04 15:51 | 58.78870 | 13.01921 | 34756 ft | 507 kts | 151° |
| 2026-05-04 15:51 | 58.75988 | 13.05831 | 34755 ft | 507 kts | 151° |
| 2026-05-04 15:52 | 58.73099 | 13.09739 | 34756 ft | 507 kts | 151° |
| 2026-05-04 15:52 | 58.70211 | 13.13638 | 34764 ft | 507 kts | 151° |
| 2026-05-04 15:53 | 58.67325 | 13.17527 | 34761 ft | 507 kts | 151° |
| 2026-05-04 15:53 | 58.64436 | 13.21410 | 34761 ft | 507 kts | 151° |
| 2026-05-04 15:54 | 58.61551 | 13.25279 | 34741 ft | 505 kts | 150° |
| 2026-05-04 15:54 | 58.58672 | 13.29134 | 34751 ft | 504 kts | 150° |
| 2026-05-04 15:55 | 58.55796 | 13.32979 | 34770 ft | 504 kts | 150° |
| 2026-05-04 15:55 | 58.52923 | 13.36810 | 34767 ft | 503 kts | 150° |
| 2026-05-04 15:56 | 58.50070 | 13.40607 | 34768 ft | 503 kts | 150° |
| 2026-05-04 15:56 | 58.47199 | 13.44420 | 34769 ft | 503 kts | 150° |
| 2026-05-04 15:57 | 58.44323 | 13.48231 | 34768 ft | 503 kts | 150° |
| 2026-05-04 15:57 | 58.41443 | 13.52039 | 34780 ft | 503 kts | 150° |
| 2026-05-04 15:58 | 58.38570 | 13.55831 | 34774 ft | 503 kts | 151° |
| 2026-05-04 15:58 | 58.35687 | 13.59611 | 34774 ft | 503 kts | 151° |
| 2026-05-04 15:59 | 58.32799 | 13.63362 | 34776 ft | 503 kts | 151° |
| 2026-05-04 15:59 | 58.29909 | 13.67109 | 34758 ft | 503 kts | 151° |
| 2026-05-04 16:00 | 58.27025 | 13.70857 | 34775 ft | 501 kts | 150° |
| 2026-05-04 16:00 | 58.24155 | 13.74592 | 34776 ft | 500 kts | 150° |
| 2026-05-04 16:01 | 58.21289 | 13.78325 | 34778 ft | 500 kts | 150° |
| 2026-05-04 16:01 | 58.18438 | 13.82035 | 34777 ft | 500 kts | 150° |
| 2026-05-04 16:02 | 58.15548 | 13.85790 | 34775 ft | 500 kts | 150° |
| 2026-05-04 16:03 | 58.11262 | 13.91346 | 34770 ft | 500 kts | 150° |
| 2026-05-04 16:03 | 58.08388 | 13.95062 | 34768 ft | 500 kts | 150° |
| 2026-05-04 16:04 | 58.05514 | 13.98769 | 34774 ft | 500 kts | 150° |
| 2026-05-04 16:04 | 58.01694 | 14.03686 | 34773 ft | 498 kts | 150° |
| 2026-05-04 16:05 | 57.98836 | 14.07357 | 34786 ft | 496 kts | 150° |
| 2026-05-04 16:06 | 57.94562 | 14.12833 | 34789 ft | 495 kts | 150° |
| 2026-05-04 16:07 | 57.88872 | 14.20091 | 34794 ft | 497 kts | 150° |
| 2026-05-04 16:08 | 57.83139 | 14.27377 | 34800 ft | 498 kts | 150° |
| 2026-05-04 16:09 | 57.75951 | 14.36477 | 34800 ft | 502 kts | 150° |
| 2026-05-04 16:10 | 57.70122 | 14.43819 | 34792 ft | 504 kts | 150° |
| 2026-05-04 16:11 | 57.64324 | 14.51052 | 34757 ft | 497 kts | 151° |
| 2026-05-04 16:12 | 57.55721 | 14.61714 | 34785 ft | 495 kts | 150° |
| 2026-05-04 16:13 | 57.49998 | 14.68819 | 34796 ft | 496 kts | 150° |
| 2026-05-04 16:14 | 57.44260 | 14.75928 | 34802 ft | 496 kts | 150° |
| 2026-05-04 16:16 | 57.37081 | 14.84784 | 34804 ft | 496 kts | 150° |
| 2026-05-04 16:17 | 57.29901 | 14.93595 | 34775 ft | 494 kts | 150° |
| 2026-05-04 16:18 | 57.24175 | 15.00593 | 34803 ft | 493 kts | 150° |
| 2026-05-04 16:19 | 57.17026 | 15.09292 | 34803 ft | 492 kts | 150° |
| 2026-05-04 16:20 | 57.09890 | 15.17932 | 34811 ft | 492 kts | 150° |
| 2026-05-04 16:22 | 57.02732 | 15.26560 | 34807 ft | 492 kts | 150° |
| 2026-05-04 16:23 | 56.94130 | 15.36813 | 34808 ft | 490 kts | 151° |
| 2026-05-04 16:25 | 56.85560 | 15.46967 | 34817 ft | 490 kts | 152° |
| 2026-05-04 16:26 | 56.79811 | 15.53775 | 34127 ft | 486 kts | 151° |
| 2026-05-04 16:26 | 56.75551 | 15.58826 | 34117 ft | 488 kts | 152° |
| 2026-05-04 16:28 | 56.68412 | 15.67243 | 34154 ft | 491 kts | 152° |
| 2026-05-04 16:28 | 56.64110 | 15.72297 | 34642 ft | 490 kts | 152° |
| 2026-05-04 16:29 | 56.58354 | 15.79036 | 34816 ft | 491 kts | 152° |
| 2026-05-04 16:31 | 56.51215 | 15.87365 | 34826 ft | 486 kts | 152° |
| 2026-05-04 16:32 | 56.42672 | 15.97271 | 34834 ft | 487 kts | 153° |
| 2026-05-04 16:33 | 56.36982 | 16.03840 | 34837 ft | 487 kts | 153° |
| 2026-05-04 16:34 | 56.32703 | 16.08766 | 34805 ft | 486 kts | 153° |
| 2026-05-04 16:35 | 56.24138 | 16.18527 | 34840 ft | 485 kts | 153° |
| 2026-05-04 16:36 | 56.19856 | 16.23374 | 34845 ft | 485 kts | 154° |
| 2026-05-04 16:37 | 56.15572 | 16.28233 | 34851 ft | 486 kts | 154° |
| 2026-05-04 16:38 | 56.09858 | 16.34717 | 34851 ft | 486 kts | 154° |
| 2026-05-04 16:39 | 56.02736 | 16.42774 | 34856 ft | 486 kts | 154° |
| 2026-05-04 16:40 | 55.97014 | 16.49220 | 34851 ft | 486 kts | 154° |
| 2026-05-04 16:41 | 55.89852 | 16.57253 | 34868 ft | 487 kts | 155° |
| 2026-05-04 16:43 | 55.82677 | 16.65265 | 34867 ft | 486 kts | 155° |
| 2026-05-04 16:43 | 55.78396 | 16.70030 | 34878 ft | 486 kts | 155° |
| 2026-05-04 16:45 | 55.69785 | 16.79574 | 34878 ft | 486 kts | 155° |
| 2026-05-04 16:46 | 55.62620 | 16.87479 | 34720 ft | 488 kts | 155° |
| 2026-05-04 16:47 | 55.59714 | 16.90659 | 34273 ft | 485 kts | 155° |
| 2026-05-04 16:47 | 55.56880 | 16.93763 | 34622 ft | 476 kts | 156° |
| 2026-05-04 16:48 | 55.52619 | 16.98385 | 34863 ft | 483 kts | 156° |
| 2026-05-04 16:48 | 55.51183 | 16.99937 | 34882 ft | 486 kts | 156° |
| 2026-05-04 16:49 | 55.45908 | 17.05662 | 34893 ft | 485 kts | 155° |
| 2026-05-04 16:50 | 55.39725 | 17.12391 | 34905 ft | 483 kts | 155° |
| 2026-05-04 16:51 | 55.35897 | 17.16543 | 34879 ft | 483 kts | 156° |
| 2026-05-04 16:52 | 55.30210 | 17.22694 | 34893 ft | 481 kts | 156° |
| 2026-05-04 16:53 | 55.25939 | 17.27298 | 34905 ft | 480 kts | 156° |
| 2026-05-04 16:54 | 55.20241 | 17.33420 | 34898 ft | 480 kts | 156° |
| 2026-05-04 16:55 | 55.11692 | 17.42567 | 34920 ft | 480 kts | 156° |
| 2026-05-04 16:56 | 55.04567 | 17.50157 | 34919 ft | 480 kts | 156° |
| 2026-05-04 16:57 | 55.00284 | 17.54702 | 34917 ft | 481 kts | 156° |
| 2026-05-04 16:58 | 54.94556 | 17.60764 | 34927 ft | 482 kts | 156° |
| 2026-05-04 17:00 | 54.85978 | 17.69790 | 34929 ft | 481 kts | 156° |
| 2026-05-04 17:01 | 54.78807 | 17.77242 | 34939 ft | 481 kts | 156° |
| 2026-05-04 17:02 | 54.73070 | 17.83219 | 34934 ft | 481 kts | 156° |
| 2026-05-04 17:03 | 54.68770 | 17.87699 | 34933 ft | 481 kts | 156° |
| 2026-05-04 17:03 | 54.64465 | 17.92175 | 34936 ft | 481 kts | 156° |
| 2026-05-04 17:04 | 54.58729 | 17.98122 | 34938 ft | 481 kts | 156° |
| 2026-05-04 17:05 | 54.52989 | 18.04052 | 34932 ft | 481 kts | 156° |
| 2026-05-04 17:06 | 54.48680 | 18.08489 | 34936 ft | 481 kts | 156° |
| 2026-05-04 17:07 | 54.44852 | 18.12422 | 34937 ft | 481 kts | 156° |
| 2026-05-04 17:07 | 54.41512 | 18.15847 | 34936 ft | 481 kts | 156° |
| 2026-05-04 17:08 | 54.37226 | 18.20240 | 34685 ft | 472 kts | 156° |
| 2026-05-04 17:08 | 54.35811 | 18.21687 | 34579 ft | 475 kts | 156° |
| 2026-05-04 17:09 | 54.34384 | 18.23142 | 34477 ft | 479 kts | 156° |
| 2026-05-04 17:09 | 54.32948 | 18.24602 | 34371 ft | 481 kts | 156° |
| 2026-05-04 17:09 | 54.31503 | 18.26070 | 34277 ft | 483 kts | 156° |
| 2026-05-04 17:10 | 54.14383 | 18.43419 | 33658 ft | 484 kts | 157° |
| 2026-05-04 17:10 | 54.05630 | 18.52135 | 33416 ft | 486 kts | 156° |
| 2026-05-04 17:11 | 53.99807 | 18.57900 | 33419 ft | 487 kts | 156° |
| 2026-05-04 17:11 | 53.93959 | 18.63761 | 33269 ft | 487 kts | 156° |
| 2026-05-04 17:12 | 53.91043 | 18.66688 | 33189 ft | 487 kts | 156° |
| 2026-05-04 17:12 | 53.85216 | 18.72503 | 33033 ft | 486 kts | 156° |
| 2026-05-04 17:13 | 53.76504 | 18.81128 | 32807 ft | 486 kts | 155° |
| 2026-05-04 17:14 | 53.67740 | 18.89758 | 32611 ft | 486 kts | 155° |
| 2026-05-04 17:14 | 53.64817 | 18.92628 | 32539 ft | 486 kts | 155° |
| 2026-05-04 17:14 | 53.58969 | 18.98355 | 32404 ft | 486 kts | 155° |
| 2026-05-04 17:15 | 53.56049 | 19.01208 | 32326 ft | 487 kts | 155° |
| 2026-05-04 17:15 | 53.50154 | 19.06951 | 31944 ft | 489 kts | 155° |
| 2026-05-04 17:16 | 53.44269 | 19.12666 | 31539 ft | 489 kts | 155° |
| 2026-05-04 17:16 | 53.35400 | 19.21174 | 30964 ft | 490 kts | 155° |
| 2026-05-04 17:17 | 53.32443 | 19.24014 | 30776 ft | 490 kts | 155° |
| 2026-05-04 17:17 | 53.23566 | 19.32541 | 30111 ft | 492 kts | 155° |
| 2026-05-04 17:18 | 53.20597 | 19.35387 | 29793 ft | 492 kts | 154° |
| 2026-05-04 17:18 | 53.14723 | 19.41007 | 28817 ft | 486 kts | 154° |
| 2026-05-04 17:19 | 53.08912 | 19.46551 | 27682 ft | 477 kts | 154° |
| 2026-05-04 17:19 | 53.03211 | 19.51969 | 26538 ft | 467 kts | 154° |
| 2026-05-04 17:20 | 52.97621 | 19.57262 | 25410 ft | 458 kts | 154° |
| 2026-05-04 17:20 | 52.92140 | 19.62435 | 24293 ft | 448 kts | 154° |
| 2026-05-04 17:20 | 52.89444 | 19.64974 | 23752 ft | 444 kts | 154° |
| 2026-05-04 17:21 | 52.84123 | 19.69974 | 22564 ft | 435 kts | 154° |
| 2026-05-04 17:21 | 52.78892 | 19.74874 | 21356 ft | 426 kts | 154° |
| 2026-05-04 17:22 | 52.76329 | 19.77278 | 21181 ft | 425 kts | 154° |
| 2026-05-04 17:22 | 52.73816 | 19.79629 | 21084 ft | 409 kts | 154° |
| 2026-05-04 17:23 | 52.67346 | 19.87641 | 20826 ft | 393 kts | 128° |
| 2026-05-04 17:23 | 52.65883 | 19.91534 | 20766 ft | 395 kts | 122° |
| 2026-05-04 17:23 | 52.63294 | 19.99472 | 20640 ft | 395 kts | 121° |
| 2026-05-04 17:24 | 52.61989 | 20.03456 | 20574 ft | 395 kts | 121° |
| 2026-05-04 17:24 | 52.57964 | 20.15273 | 19180 ft | 389 kts | 122° |
| 2026-05-04 17:25 | 52.56627 | 20.19116 | 18602 ft | 385 kts | 123° |
| 2026-05-04 17:25 | 52.53989 | 20.26656 | 17870 ft | 375 kts | 123° |
| 2026-05-04 17:26 | 52.51505 | 20.33744 | 17388 ft | 344 kts | 123° |
| 2026-05-04 17:26 | 52.47992 | 20.43772 | 15711 ft | 332 kts | 123° |
| 2026-05-04 17:27 | 52.45732 | 20.50245 | 14671 ft | 327 kts | 124° |
| 2026-05-04 17:27 | 52.43494 | 20.56654 | 13621 ft | 321 kts | 124° |
| 2026-05-04 17:28 | 52.41299 | 20.62927 | 12539 ft | 314 kts | 124° |
| 2026-05-04 17:29 | 52.38058 | 20.72143 | 11835 ft | 311 kts | 124° |
| 2026-05-04 17:29 | 52.34809 | 20.81344 | 11429 ft | 307 kts | 124° |
| 2026-05-04 17:30 | 52.31578 | 20.90497 | 11289 ft | 310 kts | 124° |
| 2026-05-04 17:31 | 52.29424 | 20.96587 | 11158 ft | 310 kts | 124° |
| 2026-05-04 17:31 | 52.25419 | 21.04469 | 10306 ft | 300 kts | 153° |
| 2026-05-04 17:32 | 52.21833 | 21.07627 | 9434 ft | 289 kts | 157° |
| 2026-05-04 17:33 | 52.16679 | 21.11994 | 8616 ft | 259 kts | 156° |
| 2026-05-04 17:33 | 52.15111 | 21.13343 | 8384 ft | 253 kts | 157° |
| 2026-05-04 17:34 | 52.10408 | 21.17422 | 7185 ft | 255 kts | 156° |
| 2026-05-04 17:35 | 52.04516 | 21.22562 | 5657 ft | 251 kts | 156° |
| 2026-05-04 17:35 | 52.01485 | 21.25206 | 5031 ft | 241 kts | 156° |
| 2026-05-04 17:35 | 52.00020 | 21.26475 | 4957 ft | 233 kts | 156° |
| 2026-05-04 17:36 | 51.98562 | 21.27725 | 4877 ft | 237 kts | 156° |
| 2026-05-04 17:36 | 51.97112 | 21.28953 | 4880 ft | 236 kts | 156° |
| 2026-05-04 17:36 | 51.95542 | 21.29939 | 4540 ft | 253 kts | 175° |
| 2026-05-04 17:36 | 51.93846 | 21.29640 | 4285 ft | 243 kts | 205° |
| 2026-05-04 17:37 | 51.92501 | 21.28007 | 4241 ft | 246 kts | 233° |
| 2026-05-04 17:37 | 51.91828 | 21.25493 | 4179 ft | 247 kts | 261° |
| 2026-05-04 17:37 | 51.92010 | 21.22746 | 4120 ft | 251 kts | 289° |
| 2026-05-04 17:37 | 51.93011 | 21.20416 | 4074 ft | 257 kts | 314° |
| 2026-05-04 17:38 | 51.94416 | 21.18570 | 3987 ft | 261 kts | 319° |
| 2026-05-04 17:38 | 51.95834 | 21.16807 | 3661 ft | 259 kts | 319° |
| 2026-05-04 17:38 | 51.97269 | 21.15009 | 3280 ft | 255 kts | 319° |
| 2026-05-04 17:38 | 51.98650 | 21.13279 | 3060 ft | 245 kts | 319° |
| 2026-05-04 17:39 | 52.01232 | 21.10178 | 3045 ft | 221 kts | 325° |
| 2026-05-04 17:39 | 52.02490 | 21.09015 | 3011 ft | 199 kts | 327° |
| 2026-05-04 17:39 | 52.03705 | 21.07932 | 2916 ft | 200 kts | 327° |
| 2026-05-04 17:40 | 52.04909 | 21.06870 | 2645 ft | 196 kts | 327° |
| 2026-05-04 17:40 | 52.06085 | 21.05841 | 2402 ft | 185 kts | 328° |
| 2026-05-04 17:40 | 52.07160 | 21.04911 | 2104 ft | 166 kts | 328° |
| 2026-05-04 17:40 | 52.08173 | 21.04026 | 1915 ft | 164 kts | 327° |
| 2026-05-04 17:41 | 52.09108 | 21.03209 | 1766 ft | 164 kts | 327° |
| 2026-05-04 17:41 | 52.09731 | 21.02669 | 1644 ft | 164 kts | 328° |
| 2026-05-04 17:41 | 52.10736 | 21.01793 | 1411 ft | 163 kts | 328° |
| 2026-05-04 17:41 | 52.11744 | 21.00939 | 1166 ft | 162 kts | 330° |
| 2026-05-04 17:42 | 52.12748 | 21.00086 | 939 ft | 161 kts | 329° |
| 2026-05-04 17:42 | 52.13773 | 20.99147 | 794 ft | 168 kts | 330° |
| 2026-05-04 17:42 | 52.14755 | 20.98310 | 540 ft | 168 kts | 332° |
| 2026-05-04 17:42 | 52.15736 | 20.97456 | 357 ft | 143 kts | 329° |
| 2026-05-04 17:43 | 52.16485 | 20.96789 | 355 ft | 102 kts | 331° |
| 2026-05-04 17:43 | 52.16973 | 20.96362 | 356 ft | 64 kts | 332° |
| 2026-05-04 17:43 | 52.17253 | 20.96242 | 348 ft | 21 kts | 1° |
| 2026-05-04 17:43 | 52.17363 | 20.96249 | 351 ft | 4 kts | 10° |
| 2026-05-04 17:44 | 52.17380 | 20.96267 | 353 ft | 2 kts | 41° |
| 2026-05-04 17:44 | 52.17390 | 20.96284 | 357 ft | 1 kts | 49° |
| 2026-05-04 17:44 | 52.17396 | 20.96296 | 357 ft | 1 kts | 53° |
| 2026-05-04 17:44 | 52.17399 | 20.96304 | 355 ft | 0 kts | 59° |
| 2026-05-04 17:45 | 52.17400 | 20.96308 | 355 ft | 1 kts | 61° |
| 2026-05-04 17:45 | 52.17401 | 20.96333 | 355 ft | 9 kts | 92° |
| 2026-05-04 17:45 | 52.17278 | 20.96497 | 355 ft | 26 kts | 154° |
| 2026-05-04 17:45 | 52.17125 | 20.96627 | 357 ft | 24 kts | 149° |
| 2026-05-04 17:46 | 52.16988 | 20.96749 | 357 ft | 22 kts | 151° |
| 2026-05-04 17:46 | 52.16861 | 20.96858 | 355 ft | 20 kts | 152° |
| 2026-05-04 17:46 | 52.16745 | 20.96958 | 354 ft | 18 kts | 152° |
| 2026-05-04 17:46 | 52.16640 | 20.97052 | 350 ft | 17 kts | 151° |
| 2026-05-04 17:47 | 52.16543 | 20.97138 | 355 ft | 15 kts | 154° |
| 2026-05-04 17:47 | 52.16453 | 20.97210 | 354 ft | 14 kts | 154° |
| 2026-05-04 17:47 | 52.16379 | 20.97277 | 354 ft | 11 kts | 149° |
| 2026-05-04 17:47 | 52.16318 | 20.97333 | 348 ft | 10 kts | 151° |
| 2026-05-04 17:48 | 52.16230 | 20.97409 | 350 ft | 20 kts | 152° |
| 2026-05-04 17:48 | 52.16076 | 20.97545 | 354 ft | 29 kts | 151° |
| 2026-05-04 17:48 | 52.15903 | 20.97697 | 357 ft | 27 kts | 152° |
| 2026-05-04 17:48 | 52.15743 | 20.97837 | 354 ft | 25 kts | 152° |
| 2026-05-04 17:49 | 52.15596 | 20.97964 | 355 ft | 23 kts | 152° |
| 2026-05-04 17:49 | 52.15460 | 20.98082 | 355 ft | 21 kts | 152° |
| 2026-05-04 17:49 | 52.15330 | 20.98196 | 357 ft | 21 kts | 151° |
| 2026-05-04 17:49 | 52.15204 | 20.98307 | 355 ft | 16 kts | 152° |
| 2026-05-04 17:50 | 52.15170 | 20.98339 | 355 ft | 0 kts | 140° |
| 2026-05-04 17:50 | 52.15167 | 20.98376 | 355 ft | 7 kts | 83° |
| 2026-05-04 17:50 | 52.15189 | 20.98433 | 355 ft | 6 kts | 56° |
| 2026-05-04 17:50 | 52.15200 | 20.98465 | 354 ft | 7 kts | 60° |
| 2026-05-04 17:51 | 52.15208 | 20.98486 | 351 ft | 0 kts | 60° |
| 2026-05-04 17:51 | 52.15207 | 20.98483 | 351 ft | 1 kts | 60° |
| 2026-05-04 17:51 | 52.15204 | 20.98475 | 354 ft | 0 kts | 62° |